createdAt,value
2022-10-18T00:00:31.960Z,19.83
2022-10-18T00:06:10.943Z,19.13
2022-10-18T00:11:32.628Z,19.80
2022-10-18T00:16:53.525Z,24.05
2022-10-18T00:22:14.198Z,20.20
2022-10-18T00:27:35.883Z,25.17
2022-10-18T00:32:56.434Z,17.92
2022-10-18T00:38:17.078Z,19.08
2022-10-18T00:44:00.757Z,20.80
2022-10-18T00:49:34.349Z,20.10
2022-10-18T00:54:56.756Z,20.85
2022-10-18T01:00:18.648Z,22.45
2022-10-18T01:05:45.118Z,16.08
2022-10-18T01:11:39.103Z,14.20
2022-10-18T01:17:01.554Z,13.55
2022-10-18T01:22:36.698Z,13.45
2022-10-18T01:28:12.479Z,12.57
2022-10-18T01:33:41.581Z,14.90
2022-10-18T01:39:07.141Z,14.43
2022-10-18T01:44:31.977Z,18.90
2022-10-18T01:49:59.292Z,18.83
2022-10-18T01:55:25.649Z,12.27
2022-10-18T02:00:52.242Z,11.65
2022-10-18T02:06:27.122Z,12.60
2022-10-18T02:11:53.925Z,10.48
2022-10-18T02:17:16.452Z,12.73
2022-10-18T02:22:40.928Z,13.52
2022-10-18T02:28:05.396Z,10.50
2022-10-18T02:33:34.616Z,12.70
2022-10-18T02:39:03.146Z,10.13
2022-10-18T02:44:24.318Z,12.20
2022-10-18T02:49:44.842Z,10.32
2022-10-18T02:55:07.012Z,11.27
2022-10-18T03:00:27.669Z,10.20
2022-10-18T03:05:52.404Z,11.35
2022-10-18T03:11:13.274Z,10.10
2022-10-18T03:16:34.321Z,12.63
2022-10-18T03:21:55.139Z,11.00
2022-10-18T03:27:15.754Z,12.20
2022-10-18T03:32:36.303Z,12.82
2022-10-18T03:37:56.829Z,11.50
2022-10-18T03:43:17.445Z,11.50
2022-10-18T03:48:38.089Z,11.90
2022-10-18T03:53:58.565Z,10.45
2022-10-18T03:59:19.346Z,11.43
2022-10-18T04:04:39.972Z,12.57
2022-10-18T04:10:00.881Z,15.70
2022-10-18T04:15:21.466Z,10.65
2022-10-18T04:20:42.139Z,13.10
2022-10-18T04:26:02.776Z,11.27
2022-10-18T04:31:23.514Z,11.52
2022-10-18T04:36:43.993Z,12.75
2022-10-18T04:42:04.755Z,11.65
2022-10-18T04:47:25.287Z,10.20
2022-10-18T04:52:45.975Z,14.00
2022-10-18T04:58:06.575Z,11.02
2022-10-18T05:03:27.315Z,11.38
2022-10-18T05:08:47.899Z,11.60
2022-10-18T05:14:10.269Z,14.35
2022-10-18T05:19:31.343Z,10.63
2022-10-18T05:24:51.834Z,10.70
2022-10-18T05:30:12.613Z,9.02
2022-10-18T05:35:33.789Z,10.25
2022-10-18T05:40:54.422Z,9.88
2022-10-18T05:46:15.819Z,10.88
2022-10-18T05:51:36.842Z,10.27
2022-10-18T05:56:57.696Z,10.98
2022-10-18T06:02:18.397Z,14.95
2022-10-18T06:07:39.000Z,11.23
2022-10-18T06:12:59.529Z,12.40
2022-10-18T06:18:20.094Z,12.52
2022-10-18T06:23:41.114Z,13.20
2022-10-18T06:29:02.212Z,15.73
2022-10-18T06:34:22.944Z,12.73
2022-10-18T06:39:43.532Z,12.10
2022-10-18T06:45:05.083Z,12.85
2022-10-18T06:50:25.833Z,14.20
2022-10-18T06:55:46.962Z,14.73
2022-10-18T07:01:10.013Z,11.32
2022-10-18T07:06:30.453Z,10.52
2022-10-18T07:11:52.835Z,10.65
2022-10-18T07:17:14.264Z,9.98
2022-10-18T07:22:35.049Z,7.53
2022-10-18T07:27:56.060Z,11.40
2022-10-18T07:33:16.837Z,8.65
2022-10-18T07:38:37.658Z,10.82
2022-10-18T07:43:58.221Z,12.18
2022-10-18T07:49:18.848Z,8.73
2022-10-18T07:54:39.447Z,8.35
2022-10-18T08:00:00.110Z,12.02
2022-10-18T08:05:20.758Z,8.82
2022-10-18T08:10:41.537Z,9.45
2022-10-18T08:16:13.360Z,7.60
2022-10-18T08:21:34.297Z,9.13
2022-10-18T08:26:55.066Z,11.20
2022-10-18T08:32:15.760Z,10.52
2022-10-18T08:37:36.371Z,11.95
2022-10-18T08:43:04.839Z,8.95
2022-10-18T08:48:35.676Z,8.45
2022-10-18T08:54:26.061Z,12.70
2022-10-18T08:59:46.661Z,9.02
2022-10-18T09:05:29.544Z,12.80
2022-10-18T09:11:09.103Z,13.52
2022-10-18T09:16:32.983Z,11.38
2022-10-18T09:21:57.638Z,11.95
2022-10-18T09:27:20.834Z,15.35
2022-10-18T09:32:51.740Z,13.63
2022-10-18T09:38:16.757Z,15.45
2022-10-18T09:43:48.379Z,12.30
2022-10-18T09:49:32.763Z,14.40
2022-10-18T09:55:01.493Z,11.25
2022-10-18T10:00:31.383Z,12.48
2022-10-18T10:06:02.750Z,11.65
2022-10-18T10:11:31.505Z,13.23
2022-10-18T10:16:57.653Z,11.63
2022-10-18T10:22:41.583Z,11.82
2022-10-18T10:28:06.389Z,15.90
2022-10-18T10:33:37.556Z,12.05
2022-10-18T10:39:11.793Z,11.77
2022-10-18T10:44:36.752Z,10.68
2022-10-18T10:49:57.685Z,11.23
2022-10-18T10:55:34.537Z,11.18
2022-10-18T11:00:58.011Z,14.40
2022-10-18T11:06:57.666Z,11.73
2022-10-18T11:12:27.928Z,11.50
2022-10-18T11:18:11.690Z,12.52
2022-10-18T11:23:34.104Z,11.98
2022-10-18T11:29:23.918Z,11.20
2022-10-18T11:35:03.055Z,9.75
2022-10-18T11:40:26.984Z,10.93
2022-10-18T11:45:59.938Z,12.05
2022-10-18T11:51:50.251Z,10.70
2022-10-18T11:57:41.601Z,13.55
2022-10-18T12:03:02.121Z,15.77
2022-10-18T12:08:31.708Z,11.10
2022-10-18T12:13:57.844Z,12.35
2022-10-18T12:19:26.430Z,12.02
2022-10-18T12:24:48.298Z,12.70
2022-10-18T12:30:29.082Z,16.65
2022-10-18T12:35:59.172Z,14.77
2022-10-18T12:41:26.797Z,14.00
2022-10-18T12:46:52.266Z,11.30
2022-10-18T12:52:23.579Z,11.25
2022-10-18T12:57:53.629Z,11.68
2022-10-18T13:03:17.857Z,9.15
2022-10-18T13:08:42.172Z,11.02
2022-10-18T13:14:11.957Z,9.98
2022-10-18T13:25:17.911Z,9.63
2022-10-18T13:30:55.565Z,7.50
2022-10-18T13:36:25.339Z,9.07
2022-10-18T13:41:45.963Z,9.40
2022-10-18T13:47:13.848Z,15.23
2022-10-18T13:53:03.410Z,12.02
2022-10-18T13:58:53.826Z,7.65
2022-10-18T14:04:39.237Z,8.95
2022-10-18T14:10:04.105Z,12.80
2022-10-18T14:15:39.543Z,7.55
2022-10-18T14:21:13.659Z,11.15
2022-10-18T14:26:35.997Z,9.95
2022-10-18T14:31:58.059Z,12.57
2022-10-18T14:37:36.533Z,10.73
2022-10-18T14:42:57.031Z,9.65
2022-10-18T14:48:22.373Z,12.35
2022-10-18T14:53:43.170Z,11.48
2022-10-18T14:59:11.636Z,28.90
2022-10-18T15:04:35.175Z,34.53
2022-10-18T15:09:59.001Z,33.15
2022-10-18T15:15:22.238Z,28.75
2022-10-18T15:20:43.474Z,29.70
2022-10-18T15:26:11.570Z,27.20
2022-10-18T15:31:35.985Z,19.55
2022-10-18T15:36:56.918Z,14.68
2022-10-18T15:42:37.339Z,16.35
2022-10-18T15:48:02.263Z,15.00
2022-10-18T15:53:23.708Z,11.63
2022-10-18T15:58:46.451Z,19.75
2022-10-18T16:04:32.990Z,21.65
2022-10-18T16:09:53.951Z,20.30
2022-10-18T16:15:14.975Z,19.05
2022-10-18T16:20:35.669Z,20.60
2022-10-18T16:25:57.024Z,22.65
2022-10-18T16:31:21.054Z,17.33
2022-10-18T16:36:41.984Z,16.50
2022-10-18T16:42:03.205Z,23.30
2022-10-18T16:47:24.259Z,19.98
2022-10-18T16:52:45.344Z,24.73
2022-10-18T16:58:06.909Z,21.33
2022-10-18T17:03:28.155Z,21.48
2022-10-18T17:08:49.855Z,18.30
2022-10-18T17:14:10.785Z,26.30
2022-10-18T17:19:31.706Z,23.58
2022-10-18T17:24:52.754Z,25.73
2022-10-18T17:30:14.926Z,21.83
2022-10-18T17:35:35.737Z,21.35
2022-10-18T17:40:57.196Z,22.58
2022-10-18T17:46:19.695Z,23.42
2022-10-18T17:51:41.668Z,20.92
2022-10-18T17:57:02.529Z,23.15
2022-10-18T18:02:23.320Z,19.10
2022-10-18T18:07:44.349Z,24.70
2022-10-18T18:13:05.408Z,19.88
2022-10-18T18:18:26.340Z,21.80
2022-10-18T18:23:47.713Z,26.40
2022-10-18T18:29:13.109Z,27.80
2022-10-18T18:34:36.675Z,23.40
2022-10-18T18:39:57.286Z,19.40
2022-10-18T18:45:18.077Z,21.30
2022-10-18T18:50:38.909Z,18.92
2022-10-18T18:56:06.086Z,17.45
2022-10-18T19:01:32.100Z,18.02
2022-10-18T19:06:52.727Z,18.52
2022-10-18T19:12:16.297Z,13.73
2022-10-18T19:17:38.859Z,13.93
2022-10-18T19:22:59.618Z,24.27
2022-10-18T19:28:20.336Z,19.70
2022-10-18T19:33:48.156Z,20.25
2022-10-18T19:39:18.476Z,19.45
2022-10-18T19:44:40.975Z,17.70
2022-10-18T19:50:01.862Z,19.35
2022-10-18T19:55:22.571Z,21.83
2022-10-18T20:00:43.154Z,19.33
2022-10-18T20:06:04.227Z,19.35
2022-10-18T20:11:27.206Z,16.75
2022-10-18T20:16:48.205Z,19.27
2022-10-18T20:22:08.793Z,17.20
2022-10-18T20:27:30.807Z,17.02
2022-10-18T20:32:53.170Z,13.32
2022-10-18T20:38:13.777Z,15.75
2022-10-18T20:43:35.383Z,15.10
2022-10-18T20:48:56.332Z,17.02
2022-10-18T20:54:17.228Z,17.48
2022-10-18T20:59:38.025Z,19.63
2022-10-18T21:04:58.854Z,18.52
2022-10-18T21:10:19.587Z,19.67
2022-10-18T21:15:40.219Z,18.15
2022-10-18T21:21:09.355Z,18.00
2022-10-18T21:26:30.429Z,19.27
2022-10-18T21:31:55.271Z,20.30
2022-10-18T21:37:16.257Z,16.08
2022-10-18T21:42:37.373Z,18.05
2022-10-18T21:48:00.114Z,14.20
2022-10-18T21:53:22.364Z,12.95
2022-10-18T21:58:44.131Z,9.77
2022-10-18T22:04:07.296Z,14.25
2022-10-18T22:09:28.422Z,9.80
2022-10-18T22:14:49.162Z,14.05
2022-10-18T22:20:12.252Z,13.45
2022-10-18T22:25:36.233Z,15.30
2022-10-18T22:30:57.143Z,13.13
2022-10-18T22:36:17.814Z,18.80
2022-10-18T22:41:38.764Z,17.55
2022-10-18T22:47:00.463Z,16.80
2022-10-18T22:52:21.575Z,15.65
2022-10-18T22:57:42.012Z,18.65
2022-10-18T23:03:02.711Z,13.40
2022-10-18T23:08:23.601Z,13.45
2022-10-18T23:13:44.794Z,14.80
2022-10-18T23:19:05.574Z,12.70
2022-10-18T23:24:26.154Z,15.10
2022-10-18T23:29:46.876Z,13.63
2022-10-18T23:35:07.821Z,13.02
2022-10-18T23:40:28.883Z,14.15
2022-10-18T23:45:49.483Z,11.70
2022-10-18T23:51:10.249Z,11.95
2022-10-18T23:56:31.119Z,14.10
